sensor_id;sensor_type;location;lat;lon;timestamp;temperature;humidity
69418;DHT22;56610;48.872;2.400;2023-07-28T00:00:43;22.20;99.90
69418;DHT22;56610;48.872;2.400;2023-07-28T00:03:09;22.20;99.90
69418;DHT22;56610;48.872;2.400;2023-07-28T00:05:36;22.10;99.90
69418;DHT22;56610;48.872;2.400;2023-07-28T00:08:02;22.10;99.90
69418;DHT22;56610;48.872;2.400;2023-07-28T00:10:27;22.10;99.90
69418;DHT22;56610;48.872;2.400;2023-07-28T00:12:53;22.10;99.90
69418;DHT22;56610;48.872;2.400;2023-07-28T00:15:19;22.20;99.90
69418;DHT22;56610;48.872;2.400;2023-07-28T00:17:44;22.20;99.90
69418;DHT22;56610;48.872;2.400;2023-07-28T00:20:11;22.10;99.90
69418;DHT22;56610;48.872;2.400;2023-07-28T00:22:36;22.10;99.90
69418;DHT22;56610;48.872;2.400;2023-07-28T00:25:02;22.10;99.90
69418;DHT22;56610;48.872;2.400;2023-07-28T00:27:28;22.20;99.90
69418;DHT22;56610;48.872;2.400;2023-07-28T00:29:53;22.20;99.90
69418;DHT22;56610;48.872;2.400;2023-07-28T00:32:20;22.20;99.90
69418;DHT22;56610;48.872;2.400;2023-07-28T00:34:46;22.20;99.90
69418;DHT22;56610;48.872;2.400;2023-07-28T00:37:12;22.20;99.90
69418;DHT22;56610;48.872;2.400;2023-07-28T00:39:37;22.10;99.90
69418;DHT22;56610;48.872;2.400;2023-07-28T00:42:03;22.10;99.90
69418;DHT22;56610;48.872;2.400;2023-07-28T00:44:29;22.10;99.90
69418;DHT22;56610;48.872;2.400;2023-07-28T00:46:54;22.10;99.90
69418;DHT22;56610;48.872;2.400;2023-07-28T00:49:21;22.10;99.90
69418;DHT22;56610;48.872;2.400;2023-07-28T00:51:46;22.10;99.90
69418;DHT22;56610;48.872;2.400;2023-07-28T00:54:12;22.10;99.90
69418;DHT22;56610;48.872;2.400;2023-07-28T00:56:39;22.10;99.90
69418;DHT22;56610;48.872;2.400;2023-07-28T00:59:04;22.00;99.90
69418;DHT22;56610;48.872;2.400;2023-07-28T01:01:30;22.10;99.90
69418;DHT22;56610;48.872;2.400;2023-07-28T01:03:56;22.20;99.90
69418;DHT22;56610;48.872;2.400;2023-07-28T01:06:41;22.20;99.90
69418;DHT22;56610;48.872;2.400;2023-07-28T01:09:16;22.20;99.90
69418;DHT22;56610;48.872;2.400;2023-07-28T01:11:57;22.20;99.90
69418;DHT22;56610;48.872;2.400;2023-07-28T01:14:24;22.20;99.90
69418;DHT22;56610;48.872;2.400;2023-07-28T01:16:50;22.20;99.90
69418;DHT22;56610;48.872;2.400;2023-07-28T01:19:20;22.20;99.90
69418;DHT22;56610;48.872;2.400;2023-07-28T01:22:09;22.20;99.90
69418;DHT22;56610;48.872;2.400;2023-07-28T01:24:48;22.00;99.90
69418;DHT22;56610;48.872;2.400;2023-07-28T01:27:16;22.00;99.90
69418;DHT22;56610;48.872;2.400;2023-07-28T01:29:42;22.00;99.90
69418;DHT22;56610;48.872;2.400;2023-07-28T01:32:08;22.10;99.90
69418;DHT22;56610;48.872;2.400;2023-07-28T01:34:35;22.10;99.90
69418;DHT22;56610;48.872;2.400;2023-07-28T01:37:01;22.10;99.90
69418;DHT22;56610;48.872;2.400;2023-07-28T01:39:26;22.00;99.90
69418;DHT22;56610;48.872;2.400;2023-07-28T01:41:52;22.00;99.90
69418;DHT22;56610;48.872;2.400;2023-07-28T01:44:17;22.00;99.90
69418;DHT22;56610;48.872;2.400;2023-07-28T01:46:43;22.00;99.90
69418;DHT22;56610;48.872;2.400;2023-07-28T01:49:09;22.10;99.90
69418;DHT22;56610;48.872;2.400;2023-07-28T01:51:34;22.10;99.90
69418;DHT22;56610;48.872;2.400;2023-07-28T01:54:00;22.20;99.90
69418;DHT22;56610;48.872;2.400;2023-07-28T01:56:25;22.20;99.90
69418;DHT22;56610;48.872;2.400;2023-07-28T01:58:51;22.10;99.90
69418;DHT22;56610;48.872;2.400;2023-07-28T02:01:16;22.10;99.90
69418;DHT22;56610;48.872;2.400;2023-07-28T02:03:42;22.10;99.90
69418;DHT22;56610;48.872;2.400;2023-07-28T02:06:07;22.00;99.90
69418;DHT22;56610;48.872;2.400;2023-07-28T02:08:33;22.00;99.90
69418;DHT22;56610;48.872;2.400;2023-07-28T02:10:58;22.00;99.90
69418;DHT22;56610;48.872;2.400;2023-07-28T02:13:24;22.00;99.90
69418;DHT22;56610;48.872;2.400;2023-07-28T02:15:49;22.10;99.90
69418;DHT22;56610;48.872;2.400;2023-07-28T02:18:15;22.20;99.90
69418;DHT22;56610;48.872;2.400;2023-07-28T02:20:41;22.20;99.90
69418;DHT22;56610;48.872;2.400;2023-07-28T02:23:06;22.20;99.90
69418;DHT22;56610;48.872;2.400;2023-07-28T02:25:32;22.10;99.90
69418;DHT22;56610;48.872;2.400;2023-07-28T02:27:57;22.10;99.90
69418;DHT22;56610;48.872;2.400;2023-07-28T02:30:23;22.10;99.90
69418;DHT22;56610;48.872;2.400;2023-07-28T02:32:49;22.10;99.90
69418;DHT22;56610;48.872;2.400;2023-07-28T02:35:14;22.20;99.90
69418;DHT22;56610;48.872;2.400;2023-07-28T02:37:40;22.20;99.90
69418;DHT22;56610;48.872;2.400;2023-07-28T02:40:06;22.20;99.90
69418;DHT22;56610;48.872;2.400;2023-07-28T02:42:32;22.20;99.90
69418;DHT22;56610;48.872;2.400;2023-07-28T02:45:00;22.10;99.90
69418;DHT22;56610;48.872;2.400;2023-07-28T02:47:26;22.20;99.90
69418;DHT22;56610;48.872;2.400;2023-07-28T02:49:51;22.20;99.90
69418;DHT22;56610;48.872;2.400;2023-07-28T02:52:17;22.20;99.90
69418;DHT22;56610;48.872;2.400;2023-07-28T02:54:42;22.10;99.90
69418;DHT22;56610;48.872;2.400;2023-07-28T02:57:08;22.10;99.90
69418;DHT22;56610;48.872;2.400;2023-07-28T02:59:33;22.00;99.90
69418;DHT22;56610;48.872;2.400;2023-07-28T03:01:59;22.10;99.90
69418;DHT22;56610;48.872;2.400;2023-07-28T03:04:25;22.20;99.90
69418;DHT22;56610;48.872;2.400;2023-07-28T03:06:50;22.20;99.90
69418;DHT22;56610;48.872;2.400;2023-07-28T03:09:16;22.30;99.90
69418;DHT22;56610;48.872;2.400;2023-07-28T03:11:44;22.30;99.90
69418;DHT22;56610;48.872;2.400;2023-07-28T03:14:10;22.10;99.90
69418;DHT22;56610;48.872;2.400;2023-07-28T03:16:38;22.10;99.90
69418;DHT22;56610;48.872;2.400;2023-07-28T03:19:03;22.10;99.90
69418;DHT22;56610;48.872;2.400;2023-07-28T03:21:30;22.20;99.90
69418;DHT22;56610;48.872;2.400;2023-07-28T03:23:56;22.20;99.90
69418;DHT22;56610;48.872;2.400;2023-07-28T03:26:22;22.30;99.90
69418;DHT22;56610;48.872;2.400;2023-07-28T03:28:47;22.30;99.90
69418;DHT22;56610;48.872;2.400;2023-07-28T03:31:13;22.40;99.90
69418;DHT22;56610;48.872;2.400;2023-07-28T03:33:38;22.50;99.90
69418;DHT22;56610;48.872;2.400;2023-07-28T03:36:04;22.40;99.90
69418;DHT22;56610;48.872;2.400;2023-07-28T03:38:29;22.20;99.90
69418;DHT22;56610;48.872;2.400;2023-07-28T03:40:55;22.20;99.90
69418;DHT22;56610;48.872;2.400;2023-07-28T03:43:21;22.10;99.90
69418;DHT22;56610;48.872;2.400;2023-07-28T03:45:47;22.20;99.90
69418;DHT22;56610;48.872;2.400;2023-07-28T03:48:13;22.30;99.90
69418;DHT22;56610;48.872;2.400;2023-07-28T03:50:39;22.30;99.90
69418;DHT22;56610;48.872;2.400;2023-07-28T03:53:04;22.40;99.90
69418;DHT22;56610;48.872;2.400;2023-07-28T03:55:30;22.40;99.90
69418;DHT22;56610;48.872;2.400;2023-07-28T03:57:55;22.40;99.90
69418;DHT22;56610;48.872;2.400;2023-07-28T04:00:21;22.40;99.90
69418;DHT22;56610;48.872;2.400;2023-07-28T04:02:47;22.30;99.90
69418;DHT22;56610;48.872;2.400;2023-07-28T04:05:12;22.30;99.90
69418;DHT22;56610;48.872;2.400;2023-07-28T04:07:38;22.30;99.90
69418;DHT22;56610;48.872;2.400;2023-07-28T04:10:04;22.20;99.90
69418;DHT22;56610;48.872;2.400;2023-07-28T04:12:30;22.20;99.90
69418;DHT22;56610;48.872;2.400;2023-07-28T04:14:55;22.00;99.90
69418;DHT22;56610;48.872;2.400;2023-07-28T04:17:21;22.20;99.90
69418;DHT22;56610;48.872;2.400;2023-07-28T04:19:47;22.20;99.90
69418;DHT22;56610;48.872;2.400;2023-07-28T04:22:12;22.40;99.90
69418;DHT22;56610;48.872;2.400;2023-07-28T04:24:38;22.30;99.90
69418;DHT22;56610;48.872;2.400;2023-07-28T04:27:04;22.40;99.90
69418;DHT22;56610;48.872;2.400;2023-07-28T04:29:30;22.40;99.90
69418;DHT22;56610;48.872;2.400;2023-07-28T04:31:55;22.40;99.90
69418;DHT22;56610;48.872;2.400;2023-07-28T04:34:21;22.50;99.90
69418;DHT22;56610;48.872;2.400;2023-07-28T04:36:47;22.50;99.90
69418;DHT22;56610;48.872;2.400;2023-07-28T04:39:12;22.40;99.90
69418;DHT22;56610;48.872;2.400;2023-07-28T04:41:38;22.20;99.90
69418;DHT22;56610;48.872;2.400;2023-07-28T04:44:04;22.20;99.90
69418;DHT22;56610;48.872;2.400;2023-07-28T04:46:30;22.20;99.90
69418;DHT22;56610;48.872;2.400;2023-07-28T04:48:56;22.20;99.90
69418;DHT22;56610;48.872;2.400;2023-07-28T04:51:21;22.20;99.90
69418;DHT22;56610;48.872;2.400;2023-07-28T04:53:47;22.20;99.90
69418;DHT22;56610;48.872;2.400;2023-07-28T04:56:13;22.20;99.90
69418;DHT22;56610;48.872;2.400;2023-07-28T04:58:38;22.30;99.90
69418;DHT22;56610;48.872;2.400;2023-07-28T05:01:04;22.30;99.90
69418;DHT22;56610;48.872;2.400;2023-07-28T05:03:30;22.40;99.90
69418;DHT22;56610;48.872;2.400;2023-07-28T05:05:56;22.40;99.90
69418;DHT22;56610;48.872;2.400;2023-07-28T05:08:21;22.50;99.90
69418;DHT22;56610;48.872;2.400;2023-07-28T05:10:47;22.40;99.90
69418;DHT22;56610;48.872;2.400;2023-07-28T05:13:12;22.20;99.90
69418;DHT22;56610;48.872;2.400;2023-07-28T05:15:38;22.20;99.90
69418;DHT22;56610;48.872;2.400;2023-07-28T05:18:04;22.10;99.90
69418;DHT22;56610;48.872;2.400;2023-07-28T05:20:30;22.00;99.90
69418;DHT22;56610;48.872;2.400;2023-07-28T05:22:56;21.80;99.90
69418;DHT22;56610;48.872;2.400;2023-07-28T05:25:21;21.60;99.90
69418;DHT22;56610;48.872;2.400;2023-07-28T05:27:47;21.70;99.90
69418;DHT22;56610;48.872;2.400;2023-07-28T05:30:13;21.70;99.90
69418;DHT22;56610;48.872;2.400;2023-07-28T05:32:38;21.70;99.90
69418;DHT22;56610;48.872;2.400;2023-07-28T05:35:04;21.70;99.90
69418;DHT22;56610;48.872;2.400;2023-07-28T05:37:30;21.80;99.90
69418;DHT22;56610;48.872;2.400;2023-07-28T05:39:55;21.70;99.90
69418;DHT22;56610;48.872;2.400;2023-07-28T05:42:21;21.80;99.90
69418;DHT22;56610;48.872;2.400;2023-07-28T05:44:46;21.90;99.90
69418;DHT22;56610;48.872;2.400;2023-07-28T05:47:12;21.90;99.90
69418;DHT22;56610;48.872;2.400;2023-07-28T05:49:38;21.80;99.90
69418;DHT22;56610;48.872;2.400;2023-07-28T05:52:03;21.90;99.90
69418;DHT22;56610;48.872;2.400;2023-07-28T05:54:29;21.90;99.90
69418;DHT22;56610;48.872;2.400;2023-07-28T05:56:55;22.00;99.90
69418;DHT22;56610;48.872;2.400;2023-07-28T05:59:20;22.20;99.90
69418;DHT22;56610;48.872;2.400;2023-07-28T06:01:46;22.00;99.90
69418;DHT22;56610;48.872;2.400;2023-07-28T06:04:12;22.00;99.90
69418;DHT22;56610;48.872;2.400;2023-07-28T06:06:37;22.00;99.90
69418;DHT22;56610;48.872;2.400;2023-07-28T06:09:03;22.00;99.90
69418;DHT22;56610;48.872;2.400;2023-07-28T06:11:28;22.20;99.90
69418;DHT22;56610;48.872;2.400;2023-07-28T06:13:54;22.00;99.90
69418;DHT22;56610;48.872;2.400;2023-07-28T06:16:20;22.00;99.90
69418;DHT22;56610;48.872;2.400;2023-07-28T06:18:45;21.90;99.90
69418;DHT22;56610;48.872;2.400;2023-07-28T06:21:11;21.90;99.90
69418;DHT22;56610;48.872;2.400;2023-07-28T06:23:36;22.00;99.90
69418;DHT22;56610;48.872;2.400;2023-07-28T06:26:02;22.00;99.90
69418;DHT22;56610;48.872;2.400;2023-07-28T06:28:28;22.00;99.90
69418;DHT22;56610;48.872;2.400;2023-07-28T06:30:54;22.00;99.90
69418;DHT22;56610;48.872;2.400;2023-07-28T06:33:20;22.00;99.90
69418;DHT22;56610;48.872;2.400;2023-07-28T06:35:46;22.10;99.90
69418;DHT22;56610;48.872;2.400;2023-07-28T06:38:12;22.10;99.90
69418;DHT22;56610;48.872;2.400;2023-07-28T06:40:38;22.00;99.90
69418;DHT22;56610;48.872;2.400;2023-07-28T06:43:03;21.90;99.90
69418;DHT22;56610;48.872;2.400;2023-07-28T06:45:29;21.90;99.90
69418;DHT22;56610;48.872;2.400;2023-07-28T06:47:54;22.00;99.90
69418;DHT22;56610;48.872;2.400;2023-07-28T06:50:20;22.00;99.90
69418;DHT22;56610;48.872;2.400;2023-07-28T06:52:46;22.00;99.90
69418;DHT22;56610;48.872;2.400;2023-07-28T06:55:14;21.90;99.90
69418;DHT22;56610;48.872;2.400;2023-07-28T06:57:40;22.00;99.90
69418;DHT22;56610;48.872;2.400;2023-07-28T07:00:06;22.00;99.90
69418;DHT22;56610;48.872;2.400;2023-07-28T07:02:34;22.10;99.90
69418;DHT22;56610;48.872;2.400;2023-07-28T07:05:00;22.00;99.90
69418;DHT22;56610;48.872;2.400;2023-07-28T07:07:25;22.20;99.90
69418;DHT22;56610;48.872;2.400;2023-07-28T07:09:51;22.20;99.90
69418;DHT22;56610;48.872;2.400;2023-07-28T07:12:17;22.30;99.90
69418;DHT22;56610;48.872;2.400;2023-07-28T07:14:42;22.20;99.90
69418;DHT22;56610;48.872;2.400;2023-07-28T07:17:08;22.10;99.90
69418;DHT22;56610;48.872;2.400;2023-07-28T07:19:33;22.30;99.90
69418;DHT22;56610;48.872;2.400;2023-07-28T07:21:59;22.30;99.90
69418;DHT22;56610;48.872;2.400;2023-07-28T07:24:25;22.30;99.90
69418;DHT22;56610;48.872;2.400;2023-07-28T07:26:50;22.20;99.90
69418;DHT22;56610;48.872;2.400;2023-07-28T07:29:16;22.10;99.90
69418;DHT22;56610;48.872;2.400;2023-07-28T07:31:41;22.00;99.90
69418;DHT22;56610;48.872;2.400;2023-07-28T07:34:07;22.10;99.90
69418;DHT22;56610;48.872;2.400;2023-07-28T07:36:33;22.00;99.90
69418;DHT22;56610;48.872;2.400;2023-07-28T07:38:58;21.90;99.90
69418;DHT22;56610;48.872;2.400;2023-07-28T07:41:24;21.90;99.90
69418;DHT22;56610;48.872;2.400;2023-07-28T07:43:53;21.80;99.90
69418;DHT22;56610;48.872;2.400;2023-07-28T07:46:19;21.80;99.90
69418;DHT22;56610;48.872;2.400;2023-07-28T07:48:45;21.70;99.90
69418;DHT22;56610;48.872;2.400;2023-07-28T07:51:11;21.70;99.90
69418;DHT22;56610;48.872;2.400;2023-07-28T07:53:37;21.80;99.90
69418;DHT22;56610;48.872;2.400;2023-07-28T07:56:04;21.70;99.90
69418;DHT22;56610;48.872;2.400;2023-07-28T07:58:29;21.60;99.90
69418;DHT22;56610;48.872;2.400;2023-07-28T08:00:56;21.60;99.90
69418;DHT22;56610;48.872;2.400;2023-07-28T08:03:21;21.60;99.90
69418;DHT22;56610;48.872;2.400;2023-07-28T08:05:47;21.70;99.90
69418;DHT22;56610;48.872;2.400;2023-07-28T08:08:13;21.70;99.90
69418;DHT22;56610;48.872;2.400;2023-07-28T08:10:43;21.70;99.90
69418;DHT22;56610;48.872;2.400;2023-07-28T08:13:09;21.80;99.90
69418;DHT22;56610;48.872;2.400;2023-07-28T08:15:34;21.70;99.90
69418;DHT22;56610;48.872;2.400;2023-07-28T08:18:00;21.60;99.90
69418;DHT22;56610;48.872;2.400;2023-07-28T08:20:25;21.70;99.90
69418;DHT22;56610;48.872;2.400;2023-07-28T08:22:51;21.70;99.90
69418;DHT22;56610;48.872;2.400;2023-07-28T08:25:17;21.70;99.90
69418;DHT22;56610;48.872;2.400;2023-07-28T08:27:43;21.80;99.90
69418;DHT22;56610;48.872;2.400;2023-07-28T08:30:09;21.90;99.90
69418;DHT22;56610;48.872;2.400;2023-07-28T08:32:35;21.90;99.90
69418;DHT22;56610;48.872;2.400;2023-07-28T08:35:01;21.90;99.90
69418;DHT22;56610;48.872;2.400;2023-07-28T08:37:28;21.90;99.90
69418;DHT22;56610;48.872;2.400;2023-07-28T08:39:54;22.00;99.90
69418;DHT22;56610;48.872;2.400;2023-07-28T08:42:21;22.00;99.90
69418;DHT22;56610;48.872;2.400;2023-07-28T08:44:48;22.10;99.90
69418;DHT22;56610;48.872;2.400;2023-07-28T08:47:15;22.10;99.90
69418;DHT22;56610;48.872;2.400;2023-07-28T08:49:40;22.00;99.90
69418;DHT22;56610;48.872;2.400;2023-07-28T08:52:07;22.10;99.90
69418;DHT22;56610;48.872;2.400;2023-07-28T08:54:32;22.10;99.90
69418;DHT22;56610;48.872;2.400;2023-07-28T08:56:58;22.10;99.90
69418;DHT22;56610;48.872;2.400;2023-07-28T08:59:25;22.10;99.90
69418;DHT22;56610;48.872;2.400;2023-07-28T09:01:52;22.20;99.90
69418;DHT22;56610;48.872;2.400;2023-07-28T09:04:19;22.30;99.90
69418;DHT22;56610;48.872;2.400;2023-07-28T09:06:46;22.50;99.90
69418;DHT22;56610;48.872;2.400;2023-07-28T09:09:13;22.50;99.90
69418;DHT22;56610;48.872;2.400;2023-07-28T09:11:46;22.50;99.90
69418;DHT22;56610;48.872;2.400;2023-07-28T09:14:14;22.60;99.90
69418;DHT22;56610;48.872;2.400;2023-07-28T09:16:41;22.70;99.90
69418;DHT22;56610;48.872;2.400;2023-07-28T09:19:08;22.80;99.90
69418;DHT22;56610;48.872;2.400;2023-07-28T09:21:34;22.80;99.90
69418;DHT22;56610;48.872;2.400;2023-07-28T09:24:03;22.90;99.90
69418;DHT22;56610;48.872;2.400;2023-07-28T09:26:46;23.00;99.90
69418;DHT22;56610;48.872;2.400;2023-07-28T09:29:18;23.00;99.90
69418;DHT22;56610;48.872;2.400;2023-07-28T09:31:44;23.10;99.90
69418;DHT22;56610;48.872;2.400;2023-07-28T09:34:11;23.00;99.90
69418;DHT22;56610;48.872;2.400;2023-07-28T09:36:37;23.10;99.90
69418;DHT22;56610;48.872;2.400;2023-07-28T09:39:06;23.10;99.90
69418;DHT22;56610;48.872;2.400;2023-07-28T09:41:35;23.20;99.90
69418;DHT22;56610;48.872;2.400;2023-07-28T09:44:07;23.20;99.90
69418;DHT22;56610;48.872;2.400;2023-07-28T09:46:35;23.20;99.90
69418;DHT22;56610;48.872;2.400;2023-07-28T09:49:10;23.30;99.90
69418;DHT22;56610;48.872;2.400;2023-07-28T09:51:41;23.20;99.90
69418;DHT22;56610;48.872;2.400;2023-07-28T09:54:20;23.20;99.90
69418;DHT22;56610;48.872;2.400;2023-07-28T09:56:57;23.10;99.90
69418;DHT22;56610;48.872;2.400;2023-07-28T09:59:35;23.00;99.90
69418;DHT22;56610;48.872;2.400;2023-07-28T10:02:03;23.10;99.90
69418;DHT22;56610;48.872;2.400;2023-07-28T10:04:29;23.10;99.90
69418;DHT22;56610;48.872;2.400;2023-07-28T10:06:55;22.80;99.90
69418;DHT22;56610;48.872;2.400;2023-07-28T10:09:24;22.90;99.90
69418;DHT22;56610;48.872;2.400;2023-07-28T10:11:50;23.00;99.90
69418;DHT22;56610;48.872;2.400;2023-07-28T10:14:29;22.80;99.90
69418;DHT22;56610;48.872;2.400;2023-07-28T10:17:00;23.00;99.90
69418;DHT22;56610;48.872;2.400;2023-07-28T10:19:28;23.00;99.90
69418;DHT22;56610;48.872;2.400;2023-07-28T10:22:08;23.20;99.90
69418;DHT22;56610;48.872;2.400;2023-07-28T10:24:56;23.20;99.90
69418;DHT22;56610;48.872;2.400;2023-07-28T10:27:46;23.40;99.90
69418;DHT22;56610;48.872;2.400;2023-07-28T10:30:14;23.50;99.90
69418;DHT22;56610;48.872;2.400;2023-07-28T10:32:40;23.60;99.90
69418;DHT22;56610;48.872;2.400;2023-07-28T10:37:38;23.80;99.90
69418;DHT22;56610;48.872;2.400;2023-07-28T10:40:23;24.10;99.90
69418;DHT22;56610;48.872;2.400;2023-07-28T10:42:50;24.20;99.90
69418;DHT22;56610;48.872;2.400;2023-07-28T10:45:16;24.30;99.90
69418;DHT22;56610;48.872;2.400;2023-07-28T10:47:43;24.10;99.90
69418;DHT22;56610;48.872;2.400;2023-07-28T10:50:09;24.20;99.90
69418;DHT22;56610;48.872;2.400;2023-07-28T10:52:39;24.30;99.90
69418;DHT22;56610;48.872;2.400;2023-07-28T10:55:05;24.20;99.90
69418;DHT22;56610;48.872;2.400;2023-07-28T10:57:36;24.40;99.90
69418;DHT22;56610;48.872;2.400;2023-07-28T11:00:02;24.50;99.90
69418;DHT22;56610;48.872;2.400;2023-07-28T11:02:28;24.50;99.90
69418;DHT22;56610;48.872;2.400;2023-07-28T11:04:54;24.50;99.90
69418;DHT22;56610;48.872;2.400;2023-07-28T11:07:20;24.30;99.90
69418;DHT22;56610;48.872;2.400;2023-07-28T11:09:45;24.50;99.90
69418;DHT22;56610;48.872;2.400;2023-07-28T11:12:11;24.50;99.90
69418;DHT22;56610;48.872;2.400;2023-07-28T11:14:37;24.50;99.90
69418;DHT22;56610;48.872;2.400;2023-07-28T11:17:02;24.50;99.90
69418;DHT22;56610;48.872;2.400;2023-07-28T11:19:28;24.60;99.90
69418;DHT22;56610;48.872;2.400;2023-07-28T11:21:54;24.80;99.90
69418;DHT22;56610;48.872;2.400;2023-07-28T11:24:21;24.80;99.90
69418;DHT22;56610;48.872;2.400;2023-07-28T11:26:47;24.80;99.90
69418;DHT22;56610;48.872;2.400;2023-07-28T11:29:13;24.80;99.90
69418;DHT22;56610;48.872;2.400;2023-07-28T11:31:41;24.60;99.90
69418;DHT22;56610;48.872;2.400;2023-07-28T11:34:16;24.60;99.90
69418;DHT22;56610;48.872;2.400;2023-07-28T11:36:42;24.60;99.90
69418;DHT22;56610;48.872;2.400;2023-07-28T11:39:08;24.90;99.90
69418;DHT22;56610;48.872;2.400;2023-07-28T11:41:36;25.10;99.90
69418;DHT22;56610;48.872;2.400;2023-07-28T11:44:02;25.30;99.90
69418;DHT22;56610;48.872;2.400;2023-07-28T11:46:40;25.60;99.90
69418;DHT22;56610;48.872;2.400;2023-07-28T11:49:17;25.70;99.90
69418;DHT22;56610;48.872;2.400;2023-07-28T11:51:46;25.80;99.90
69418;DHT22;56610;48.872;2.400;2023-07-28T11:54:16;25.80;99.90
69418;DHT22;56610;48.872;2.400;2023-07-28T11:56:43;25.90;99.90
69418;DHT22;56610;48.872;2.400;2023-07-28T11:59:10;25.90;99.90
69418;DHT22;56610;48.872;2.400;2023-07-28T12:01:51;25.80;99.90
69418;DHT22;56610;48.872;2.400;2023-07-28T12:04:28;25.60;99.90
69418;DHT22;56610;48.872;2.400;2023-07-28T12:07:10;25.80;99.90
69418;DHT22;56610;48.872;2.400;2023-07-28T12:12:11;26.00;99.90
69418;DHT22;56610;48.872;2.400;2023-07-28T12:14:36;26.10;99.90
69418;DHT22;56610;48.872;2.400;2023-07-28T12:17:05;26.10;99.90
69418;DHT22;56610;48.872;2.400;2023-07-28T12:22:29;26.00;99.90
69418;DHT22;56610;48.872;2.400;2023-07-28T12:24:55;26.40;99.90
69418;DHT22;56610;48.872;2.400;2023-07-28T12:27:22;26.30;99.90
69418;DHT22;56610;48.872;2.400;2023-07-28T12:29:50;26.30;99.90
69418;DHT22;56610;48.872;2.400;2023-07-28T12:32:16;26.40;99.90
69418;DHT22;56610;48.872;2.400;2023-07-28T12:34:42;26.40;99.90
69418;DHT22;56610;48.872;2.400;2023-07-28T12:37:07;26.30;99.90
69418;DHT22;56610;48.872;2.400;2023-07-28T12:39:36;26.30;99.90
69418;DHT22;56610;48.872;2.400;2023-07-28T12:42:08;26.20;99.90
69418;DHT22;56610;48.872;2.400;2023-07-28T12:44:35;26.20;99.90
69418;DHT22;56610;48.872;2.400;2023-07-28T12:47:01;26.40;99.90
69418;DHT22;56610;48.872;2.400;2023-07-28T12:49:27;26.60;99.90
69418;DHT22;56610;48.872;2.400;2023-07-28T12:51:55;26.80;99.90
69418;DHT22;56610;48.872;2.400;2023-07-28T12:54:25;26.90;99.90
69418;DHT22;56610;48.872;2.400;2023-07-28T12:56:54;26.90;99.90
69418;DHT22;56610;48.872;2.400;2023-07-28T12:59:20;26.70;99.90
69418;DHT22;56610;48.872;2.400;2023-07-28T13:01:46;26.60;99.90
69418;DHT22;56610;48.872;2.400;2023-07-28T13:04:12;26.50;99.90
69418;DHT22;56610;48.872;2.400;2023-07-28T13:06:37;26.20;99.90
69418;DHT22;56610;48.872;2.400;2023-07-28T13:09:07;26.30;99.90
69418;DHT22;56610;48.872;2.400;2023-07-28T13:11:33;26.30;99.90
69418;DHT22;56610;48.872;2.400;2023-07-28T13:13:59;26.20;99.90
69418;DHT22;56610;48.872;2.400;2023-07-28T13:16:24;26.50;99.90
69418;DHT22;56610;48.872;2.400;2023-07-28T13:18:50;26.40;99.90
69418;DHT22;56610;48.872;2.400;2023-07-28T13:21:16;26.50;99.90
69418;DHT22;56610;48.872;2.400;2023-07-28T13:23:41;26.70;99.90
69418;DHT22;56610;48.872;2.400;2023-07-28T13:26:07;26.50;99.90
69418;DHT22;56610;48.872;2.400;2023-07-28T13:28:33;26.50;99.90
69418;DHT22;56610;48.872;2.400;2023-07-28T13:31:00;26.40;99.90
69418;DHT22;56610;48.872;2.400;2023-07-28T13:33:26;26.40;99.90
69418;DHT22;56610;48.872;2.400;2023-07-28T13:35:52;26.20;99.90
69418;DHT22;56610;48.872;2.400;2023-07-28T13:38:17;26.10;99.90
69418;DHT22;56610;48.872;2.400;2023-07-28T13:40:43;26.10;99.90
69418;DHT22;56610;48.872;2.400;2023-07-28T13:43:09;25.60;99.90
69418;DHT22;56610;48.872;2.400;2023-07-28T13:45:34;25.40;99.90
69418;DHT22;56610;48.872;2.400;2023-07-28T13:48:00;25.20;99.90
69418;DHT22;56610;48.872;2.400;2023-07-28T13:50:25;25.10;99.90
69418;DHT22;56610;48.872;2.400;2023-07-28T13:52:51;24.90;99.90
69418;DHT22;56610;48.872;2.400;2023-07-28T13:55:16;24.80;99.90
69418;DHT22;56610;48.872;2.400;2023-07-28T13:57:43;24.80;99.90
69418;DHT22;56610;48.872;2.400;2023-07-28T14:00:09;24.80;99.90
69418;DHT22;56610;48.872;2.400;2023-07-28T14:02:38;24.90;99.90
69418;DHT22;56610;48.872;2.400;2023-07-28T14:05:04;24.90;99.90
69418;DHT22;56610;48.872;2.400;2023-07-28T14:07:31;25.00;99.90
69418;DHT22;56610;48.872;2.400;2023-07-28T14:09:57;24.90;99.90
69418;DHT22;56610;48.872;2.400;2023-07-28T14:12:22;25.00;99.90
69418;DHT22;56610;48.872;2.400;2023-07-28T14:14:48;25.00;99.90
69418;DHT22;56610;48.872;2.400;2023-07-28T14:17:15;24.90;99.90
69418;DHT22;56610;48.872;2.400;2023-07-28T14:19:41;24.90;99.90
69418;DHT22;56610;48.872;2.400;2023-07-28T14:22:07;24.80;99.90
69418;DHT22;56610;48.872;2.400;2023-07-28T14:24:32;25.00;99.90
69418;DHT22;56610;48.872;2.400;2023-07-28T14:26:58;25.10;99.90
69418;DHT22;56610;48.872;2.400;2023-07-28T14:29:24;25.20;99.90
69418;DHT22;56610;48.872;2.400;2023-07-28T14:31:49;25.30;99.90
69418;DHT22;56610;48.872;2.400;2023-07-28T14:34:15;25.40;99.90
69418;DHT22;56610;48.872;2.400;2023-07-28T14:36:40;25.50;99.90
69418;DHT22;56610;48.872;2.400;2023-07-28T14:39:06;25.50;99.90
69418;DHT22;56610;48.872;2.400;2023-07-28T14:41:32;25.40;99.90
69418;DHT22;56610;48.872;2.400;2023-07-28T14:43:58;25.40;99.90
69418;DHT22;56610;48.872;2.400;2023-07-28T14:46:24;25.40;99.90
69418;DHT22;56610;48.872;2.400;2023-07-28T14:48:51;25.30;99.90
69418;DHT22;56610;48.872;2.400;2023-07-28T14:51:17;25.20;99.90
69418;DHT22;56610;48.872;2.400;2023-07-28T14:53:43;25.10;99.90
69418;DHT22;56610;48.872;2.400;2023-07-28T14:56:10;25.10;99.90
69418;DHT22;56610;48.872;2.400;2023-07-28T14:58:36;24.90;99.90
69418;DHT22;56610;48.872;2.400;2023-07-28T15:01:02;24.50;99.90
69418;DHT22;56610;48.872;2.400;2023-07-28T15:03:30;24.20;99.90
69418;DHT22;56610;48.872;2.400;2023-07-28T15:06:00;24.00;99.90
69418;DHT22;56610;48.872;2.400;2023-07-28T15:08:26;23.70;99.90
69418;DHT22;56610;48.872;2.400;2023-07-28T15:10:52;23.50;99.90
69418;DHT22;56610;48.872;2.400;2023-07-28T15:13:18;23.50;99.90
69418;DHT22;56610;48.872;2.400;2023-07-28T15:15:44;23.50;99.90
69418;DHT22;56610;48.872;2.400;2023-07-28T15:18:10;23.50;99.90
69418;DHT22;56610;48.872;2.400;2023-07-28T15:20:36;23.50;99.90
69418;DHT22;56610;48.872;2.400;2023-07-28T15:23:02;23.50;99.90
69418;DHT22;56610;48.872;2.400;2023-07-28T15:25:27;23.50;99.90
69418;DHT22;56610;48.872;2.400;2023-07-28T15:27:53;23.50;99.90
69418;DHT22;56610;48.872;2.400;2023-07-28T15:30:19;23.50;99.90
69418;DHT22;56610;48.872;2.400;2023-07-28T15:32:45;23.50;99.90
69418;DHT22;56610;48.872;2.400;2023-07-28T15:35:10;23.50;99.90